Terminal Aerodrome Forecast
Issued by NWS Cleveland, OH

Home | Current Version | Previous Version | Graphics & Text | Print | Product List | Glossary On
Versions: 1 2 3 4 5 6 7 8 9 10 11 12 13 14 15 16 17 18 19 20
000
FTUS41 KCLE 271130
TAFERI
TAF
KERI 271130Z 2712/2812 16003KT P6SM SCT250
     FM271700 04007KT P6SM SCT250
     FM280200 13003KT P6SM BKN200
     FM280900 17005KT P6SM VCSH SCT050 BKN150=

USA.gov is the U.S. government's official web portal to all federal, state and local government web resources and services.